Time;durP1;ratioP1;P1;durP2;ratioP2;P2;SDS_P1;SDS_P2;PMS_P1;PMS_P2;Temp;Humidity;BMP_temperature;BMP_pressure;BME280_temperature;BME280_humidity;BME280_pressure;Samples;Min_cycle;Max_cycle;Signal;HPM_P1;HPM_P2
2021/06/14 00:01:09;;;;;;;1.77;0.50;;;15.00;76.80;;;;;;5054187;28;20188;-73
2021/06/14 00:03:35;;;;;;;0.40;0.40;;;15.00;76.80;;;;;;5050487;28;20587;-73
2021/06/14 00:06:02;;;;;;;0.38;0.38;;;15.00;76.80;;;;;;5051839;28;20188;-73
2021/06/14 00:08:28;;;;;;;0.40;0.40;;;14.90;76.90;;;;;;5050468;28;20187;-73
2021/06/14 00:10:56;;;;;;;0.45;0.45;;;14.90;77.00;;;;;;5055264;28;20191;-71
2021/06/14 00:13:25;;;;;;;0.40;0.40;;;14.90;77.00;;;;;;5048892;28;20669;-71
2021/06/14 00:15:51;;;;;;;0.60;0.60;;;14.80;77.00;;;;;;5046632;28;20210;-74
2021/06/14 00:18:18;;;;;;;0.60;0.60;;;14.80;76.90;;;;;;5052062;28;20891;-73
2021/06/14 00:21:11;;;;;;;1.02;0.50;;;14.80;77.00;;;;;;5049944;28;20571;-74
2021/06/14 00:23:37;;;;;;;0.60;0.60;;;14.80;76.90;;;;;;5048127;28;20195;-73
2021/06/14 00:26:10;;;;;;;1.33;0.60;;;14.80;77.00;;;;;;5056665;28;20185;-74
2021/06/14 00:28:40;;;;;;;1.65;0.60;;;14.80;77.00;;;;;;5032423;28;20233;-73
2021/06/14 00:31:08;;;;;;;3.15;0.60;;;14.80;77.00;;;;;;5049590;28;20248;-73
2021/06/14 00:33:35;;;;;;;0.50;0.50;;;14.80;76.90;;;;;;5049305;28;20294;-73
2021/06/14 00:36:00;;;;;;;0.50;0.50;;;14.80;77.10;;;;;;5049945;28;20734;-72
2021/06/14 00:38:26;;;;;;;2.92;0.70;;;14.80;77.00;;;;;;5050092;28;20306;-73
2021/06/14 00:40:52;;;;;;;0.30;0.30;;;14.80;77.00;;;;;;5055564;28;20191;-72
2021/06/14 00:43:18;;;;;;;3.50;0.70;;;14.80;77.10;;;;;;5051600;28;20176;-73
2021/06/14 00:45:49;;;;;;;0.45;0.43;;;14.80;77.10;;;;;;5050833;28;20184;-73
2021/06/14 00:48:15;;;;;;;0.57;0.50;;;14.80;77.30;;;;;;5051093;28;20954;-73
2021/06/14 00:50:41;;;;;;;2.28;0.60;;;14.80;77.30;;;;;;5049932;28;20191;-73
2021/06/14 00:53:09;;;;;;;1.10;0.50;;;14.80;77.30;;;;;;5049963;28;20176;-73
2021/06/14 00:55:35;;;;;;;0.50;0.50;;;14.80;77.50;;;;;;5050228;28;20181;-73
2021/06/14 00:58:01;;;;;;;0.73;0.40;;;14.80;77.50;;;;;;5051387;28;20211;-73
2021/06/14 01:00:26;;;;;;;0.60;0.60;;;14.80;77.70;;;;;;5049549;28;20180;-73
2021/06/14 01:02:52;;;;;;;0.60;0.60;;;14.80;77.60;;;;;;5047525;28;20188;-73
2021/06/14 01:05:18;;;;;;;1.65;0.70;;;14.80;77.80;;;;;;5057640;28;20187;-72
2021/06/14 01:07:44;;;;;;;1.67;0.60;;;14.80;77.90;;;;;;5053311;28;20913;-73
2021/06/14 01:10:11;;;;;;;0.77;0.77;;;14.80;78.00;;;;;;5048870;28;20203;-72
2021/06/14 01:12:51;;;;;;;0.52;0.52;;;14.70;78.10;;;;;;5047744;28;20628;-72
2021/06/14 01:15:19;;;;;;;4.03;0.70;;;14.70;78.30;;;;;;5045104;28;20191;-73
2021/06/14 01:17:54;;;;;;;3.13;0.63;;;14.70;78.40;;;;;;5043108;28;20732;-73
2021/06/14 01:20:45;;;;;;;0.45;0.45;;;14.60;78.60;;;;;;5051753;28;20197;-72
2021/06/14 01:23:35;;;;;;;0.77;0.65;;;14.60;78.70;;;;;;5052747;28;20216;-73
2021/06/14 01:26:16;;;;;;;2.08;0.47;;;14.60;78.80;;;;;;5037821;28;20191;-73
2021/06/14 01:28:43;;;;;;;0.45;0.45;;;14.60;78.70;;;;;;5044687;28;20179;-73
2021/06/14 01:31:10;;;;;;;1.58;0.85;;;14.60;78.80;;;;;;5047690;28;20214;-73
2021/06/14 01:33:37;;;;;;;1.90;0.60;;;14.60;78.80;;;;;;5047258;28;20302;-74
2021/06/14 01:36:14;;;;;;;0.60;0.50;;;14.60;78.90;;;;;;5060888;28;20179;-73
2021/06/14 01:38:43;;;;;;;0.50;0.50;;;14.60;78.90;;;;;;5045782;28;20213;-73
2021/06/14 01:41:10;;;;;;;2.15;0.55;;;14.60;78.90;;;;;;5046603;28;20192;-74
2021/06/14 01:43:40;;;;;;;0.70;0.70;;;14.60;78.90;;;;;;5057956;28;20550;-74
2021/06/14 01:46:09;;;;;;;0.52;0.52;;;14.70;78.80;;;;;;5047629;28;20179;-72
2021/06/14 01:48:37;;;;;;;0.70;0.70;;;14.70;79.00;;;;;;5048391;28;20245;-73
2021/06/14 01:51:06;;;;;;;2.72;0.52;;;14.60;79.00;;;;;;5047445;28;20183;-73
2021/06/14 01:53:32;;;;;;;0.80;0.80;;;14.70;79.00;;;;;;5048641;28;20267;-73
2021/06/14 01:55:59;;;;;;;3.13;0.60;;;14.70;79.00;;;;;;5046132;28;20190;-73
2021/06/14 01:58:25;;;;;;;0.85;0.70;;;14.70;79.00;;;;;;5053032;28;20214;-73
2021/06/14 02:00:53;;;;;;;0.70;0.70;;;14.70;79.20;;;;;;5048394;28;20190;-74
2021/06/14 02:03:19;;;;;;;0.55;0.55;;;14.70;79.10;;;;;;5044472;28;20842;-73
2021/06/14 02:05:46;;;;;;;1.23;0.50;;;14.70;79.00;;;;;;5047454;28;20205;-73
2021/06/14 02:08:15;;;;;;;1.20;0.80;;;14.70;79.10;;;;;;5045804;28;20187;-72
2021/06/14 02:10:42;;;;;;;1.92;0.73;;;14.70;79.90;;;;;;5039115;28;20188;-74
2021/06/14 02:13:08;;;;;;;0.88;0.88;;;14.60;79.50;;;;;;5052937;28;20271;-74
2021/06/14 02:15:34;;;;;;;3.13;0.70;;;14.60;79.50;;;;;;5049466;28;20179;-74
2021/06/14 02:18:02;;;;;;;1.15;0.50;;;14.60;79.40;;;;;;5046790;28;20226;-73
2021/06/14 02:20:28;;;;;;;2.15;0.85;;;14.50;79.40;;;;;;5048205;28;20684;-74
2021/06/14 02:22:54;;;;;;;0.57;0.57;;;14.50;79.40;;;;;;5051598;28;20186;-73
2021/06/14 02:25:20;;;;;;;0.70;0.70;;;14.50;79.60;;;;;;5040853;28;20785;-74
2021/06/14 02:27:47;;;;;;;0.63;0.63;;;14.50;79.60;;;;;;5055393;28;20192;-73
2021/06/14 02:30:18;;;;;;;0.73;0.70;;;14.50;79.80;;;;;;5048662;28;20657;-74
2021/06/14 02:32:44;;;;;;;4.25;0.82;;;14.50;79.80;;;;;;5046061;28;20194;-72
2021/06/14 02:35:11;;;;;;;0.55;0.50;;;14.50;79.90;;;;;;5048789;28;20187;-73
2021/06/14 02:37:39;;;;;;;1.05;0.70;;;14.50;79.80;;;;;;5047471;28;20286;-72
2021/06/14 02:40:09;;;;;;;0.77;0.77;;;14.40;79.90;;;;;;5046353;28;20190;-73
2021/06/14 02:42:37;;;;;;;3.38;0.65;;;14.40;80.10;;;;;;5048043;28;20296;-73
2021/06/14 02:45:07;;;;;;;0.70;0.70;;;14.30;80.20;;;;;;5057194;28;20183;-72
2021/06/14 02:47:35;;;;;;;0.60;0.60;;;14.30;80.60;;;;;;5056911;28;20257;-72
2021/06/14 02:50:03;;;;;;;2.17;0.77;;;14.20;80.80;;;;;;5054576;28;20167;-73
2021/06/14 02:52:30;;;;;;;1.30;1.00;;;14.10;80.90;;;;;;5057943;28;20175;-72
2021/06/14 02:55:03;;;;;;;0.43;0.43;;;14.00;81.20;;;;;;5045641;28;20549;-73
2021/06/14 02:57:30;;;;;;;0.93;0.80;;;14.00;81.40;;;;;;5053320;28;20725;-73
2021/06/14 02:59:56;;;;;;;1.60;0.50;;;13.90;81.50;;;;;;5062906;28;20186;-72
2021/06/14 03:02:24;;;;;;;0.60;0.60;;;13.90;81.60;;;;;;5052614;28;20179;-73
2021/06/14 03:04:51;;;;;;;1.23;0.65;;;13.90;81.80;;;;;;5061255;28;20190;-72
2021/06/14 03:07:22;;;;;;;0.80;0.80;;;13.80;82.10;;;;;;5052430;28;20233;-72
2021/06/14 03:09:49;;;;;;;2.03;0.60;;;13.80;82.00;;;;;;5063980;28;20206;-72
2021/06/14 03:12:15;;;;;;;3.60;0.88;;;13.80;82.40;;;;;;5051876;28;20180;-72
2021/06/14 03:14:41;;;;;;;0.90;0.90;;;13.70;82.40;;;;;;5053146;28;20270;-73
2021/06/14 03:17:07;;;;;;;0.70;0.70;;;13.70;82.60;;;;;;5054182;28;20696;-73
2021/06/14 03:19:34;;;;;;;1.33;0.75;;;13.70;82.40;;;;;;5069407;28;20269;-72
2021/06/14 03:22:04;;;;;;;1.00;0.80;;;13.70;82.70;;;;;;5056245;28;20179;-72
2021/06/14 03:24:30;;;;;;;0.77;0.77;;;13.70;82.60;;;;;;5061269;28;20186;-72
2021/06/14 03:26:59;;;;;;;0.95;0.70;;;13.70;82.80;;;;;;5057807;28;20187;-74
2021/06/14 03:29:27;;;;;;;2.10;0.80;;;13.70;82.80;;;;;;5052906;28;20687;-73
2021/06/14 03:31:53;;;;;;;0.98;0.98;;;13.70;82.80;;;;;;5056550;28;20180;-73
2021/06/14 03:34:21;;;;;;;2.25;1.00;;;13.80;82.80;;;;;;5051617;28;20545;-73
2021/06/14 03:36:48;;;;;;;1.67;0.60;;;13.80;82.60;;;;;;5052571;28;20242;-73
2021/06/14 03:39:17;;;;;;;0.73;0.73;;;13.90;82.60;;;;;;5059486;28;20234;-74
2021/06/14 03:41:47;;;;;;;0.60;0.60;;;13.90;82.50;;;;;;5052309;28;20183;-74
2021/06/14 03:44:15;;;;;;;0.95;0.80;;;13.90;82.40;;;;;;5051709;28;20182;-73
2021/06/14 03:46:41;;;;;;;3.35;0.75;;;14.00;82.10;;;;;;5052421;28;20182;-73
2021/06/14 03:49:07;;;;;;;0.73;0.73;;;14.00;82.10;;;;;;5053495;28;20188;-73
2021/06/14 03:51:34;;;;;;;0.93;0.70;;;14.00;82.20;;;;;;5053384;28;20184;-73
2021/06/14 03:54:00;;;;;;;1.42;0.85;;;14.00;82.20;;;;;;5053723;28;20210;-74
2021/06/14 03:56:31;;;;;;;0.73;0.73;;;14.10;82.30;;;;;;5051997;28;20560;-73
2021/06/14 03:58:57;;;;;;;1.75;0.98;;;14.00;82.30;;;;;;5030842;28;20211;-73
2021/06/14 04:01:23;;;;;;;1.20;0.73;;;14.10;82.30;;;;;;5050492;28;20685;-74
2021/06/14 04:06:34;;;;;;;0.80;0.75;;;14.10;82.20;;;;;;5048713;28;20186;-74
2021/06/14 04:09:00;;;;;;;0.65;0.65;;;14.10;82.10;;;;;;5047404;28;20199;-73
2021/06/14 04:11:25;;;;;;;0.80;0.80;;;14.10;82.00;;;;;;5048112;28;20685;-71
2021/06/14 04:13:51;;;;;;;0.52;0.52;;;14.00;82.10;;;;;;5049976;28;20168;-72
2021/06/14 04:16:18;;;;;;;0.50;0.50;;;14.00;82.00;;;;;;5048798;28;20237;-73
2021/06/14 04:18:44;;;;;;;4.53;0.70;;;14.00;82.00;;;;;;5048620;28;20214;-74
2021/06/14 04:21:10;;;;;;;4.78;0.80;;;14.00;82.30;;;;;;5049281;28;20562;-74
2021/06/14 04:23:37;;;;;;;0.80;0.80;;;14.10;82.20;;;;;;5045327;28;20281;-75
2021/06/14 04:26:03;;;;;;;3.10;0.80;;;14.10;82.20;;;;;;5046758;28;20172;-72
2021/06/14 04:28:28;;;;;;;1.00;0.88;;;14.10;82.10;;;;;;5044032;28;20191;-73
2021/06/14 04:30:54;;;;;;;0.68;0.68;;;14.20;82.00;;;;;;5047950;28;20171;-72
2021/06/14 04:33:20;;;;;;;0.63;0.63;;;14.20;82.10;;;;;;5048807;28;20188;-71
2021/06/14 04:35:46;;;;;;;0.60;0.60;;;14.30;81.80;;;;;;5049340;28;20720;-74
2021/06/14 04:38:12;;;;;;;1.27;0.70;;;14.30;81.40;;;;;;5048894;28;20286;-73
2021/06/14 04:40:37;;;;;;;0.75;0.75;;;14.30;81.40;;;;;;5048925;28;20576;-73
2021/06/14 04:43:03;;;;;;;1.00;0.82;;;14.40;81.40;;;;;;5046851;28;20211;-73
2021/06/14 04:45:29;;;;;;;0.70;0.70;;;14.50;81.20;;;;;;5047440;28;20175;-74
2021/06/14 04:47:55;;;;;;;1.08;0.80;;;14.50;80.80;;;;;;5050056;28;20184;-73
2021/06/14 04:50:20;;;;;;;0.70;0.70;;;14.50;80.60;;;;;;5047263;28;20211;-73
2021/06/14 04:52:46;;;;;;;0.70;0.70;;;14.50;80.10;;;;;;5048579;28;20172;-72
2021/06/14 04:55:12;;;;;;;0.70;0.70;;;14.50;80.30;;;;;;5048027;28;20735;-72
2021/06/14 04:57:38;;;;;;;0.70;0.70;;;14.50;80.20;;;;;;5045953;28;20769;-73
2021/06/14 05:00:08;;;;;;;0.93;0.70;;;14.50;80.20;;;;;;5047047;28;20191;-73
2021/06/14 05:02:34;;;;;;;1.73;0.80;;;14.50;80.20;;;;;;5029874;28;20301;-73
2021/06/14 05:05:00;;;;;;;5.05;0.80;;;14.60;80.20;;;;;;5048621;28;20184;-74
2021/06/14 05:07:26;;;;;;;2.15;0.70;;;14.60;80.30;;;;;;5050642;28;20206;-74
2021/06/14 05:09:53;;;;;;;0.75;0.60;;;14.60;80.40;;;;;;5050354;28;20621;-73
2021/06/14 05:12:19;;;;;;;0.70;0.70;;;14.70;80.30;;;;;;5036422;28;20249;-72
2021/06/14 05:14:44;;;;;;;0.85;0.85;;;14.70;80.20;;;;;;5049269;28;20681;-71
2021/06/14 05:17:10;;;;;;;0.70;0.70;;;14.70;80.30;;;;;;5048341;28;20182;-72
2021/06/14 05:19:36;;;;;;;0.80;0.60;;;14.70;80.40;;;;;;5053039;28;20294;-71
2021/06/14 05:22:04;;;;;;;4.78;0.85;;;14.60;80.00;;;;;;5054739;28;20278;-72
2021/06/14 05:24:30;;;;;;;0.60;0.60;;;14.60;80.10;;;;;;5028512;28;20944;-70
2021/06/14 05:26:56;;;;;;;0.90;0.70;;;14.50;80.10;;;;;;5046754;28;20190;-71
2021/06/14 05:29:22;;;;;;;2.20;0.77;;;14.50;80.10;;;;;;5047943;28;20187;-71
2021/06/14 05:31:47;;;;;;;0.80;0.80;;;14.50;80.20;;;;;;5048909;28;20188;-72
2021/06/14 05:34:13;;;;;;;0.93;0.77;;;14.50;80.10;;;;;;5046088;28;20183;-72
2021/06/14 05:36:39;;;;;;;0.50;0.50;;;14.50;80.20;;;;;;5047329;28;20823;-72
2021/06/14 05:39:05;;;;;;;0.63;0.63;;;14.60;80.40;;;;;;5047710;28;20210;-72
2021/06/14 05:41:31;;;;;;;0.60;0.60;;;14.70;80.50;;;;;;5047604;28;20258;-71
2021/06/14 05:43:57;;;;;;;4.82;0.65;;;14.70;79.90;;;;;;5042854;28;20259;-71
2021/06/14 05:46:23;;;;;;;0.95;0.70;;;14.80;79.50;;;;;;5047140;28;20180;-71
2021/06/14 05:48:49;;;;;;;0.52;0.52;;;14.80;79.40;;;;;;5048077;28;20190;-71
2021/06/14 05:51:14;;;;;;;1.10;1.00;;;14.90;79.50;;;;;;5047795;28;20175;-72
2021/06/14 05:53:40;;;;;;;0.70;0.70;;;14.80;79.80;;;;;;5045940;28;20176;-71
2021/06/14 05:56:06;;;;;;;0.90;0.90;;;14.80;79.80;;;;;;5047404;28;20218;-71
2021/06/14 05:58:31;;;;;;;0.70;0.70;;;14.90;80.10;;;;;;5048940;28;20203;-70
2021/06/14 06:00:57;;;;;;;0.73;0.70;;;14.80;79.60;;;;;;5028866;28;20199;-70
2021/06/14 06:03:23;;;;;;;0.60;0.60;;;14.90;80.00;;;;;;5047163;28;20179;-71
2021/06/14 06:05:49;;;;;;;1.02;0.93;;;14.90;80.00;;;;;;5046008;28;20191;-70
2021/06/14 06:08:14;;;;;;;0.73;0.70;;;14.90;80.00;;;;;;5037886;28;20186;-70
2021/06/14 06:10:40;;;;;;;0.70;0.70;;;15.00;79.80;;;;;;5046374;28;20206;-71
2021/06/14 06:13:06;;;;;;;0.90;0.90;;;15.00;79.90;;;;;;5047729;28;20214;-72
2021/06/14 06:15:32;;;;;;;0.70;0.70;;;15.00;80.00;;;;;;5047691;28;20661;-72
2021/06/14 06:17:58;;;;;;;5.78;0.80;;;15.00;79.50;;;;;;5047718;28;20680;-71
2021/06/14 06:20:24;;;;;;;1.85;0.65;;;15.00;79.10;;;;;;5046430;28;20199;-70
2021/06/14 06:22:51;;;;;;;0.63;0.63;;;15.10;78.70;;;;;;5046965;28;20206;-71
2021/06/14 06:25:20;;;;;;;0.73;0.70;;;15.10;77.80;;;;;;5027194;28;20211;-70
2021/06/14 06:27:48;;;;;;;0.95;0.80;;;15.10;77.90;;;;;;5047040;28;20264;-69
2021/06/14 06:30:15;;;;;;;0.80;0.68;;;15.20;78.00;;;;;;5046995;28;20187;-69
2021/06/14 06:32:41;;;;;;;0.88;0.70;;;15.30;78.00;;;;;;5046945;28;20175;-70
2021/06/14 06:35:09;;;;;;;0.55;0.55;;;15.40;77.80;;;;;;5046969;28;20183;-70
2021/06/14 06:37:35;;;;;;;1.75;0.80;;;15.50;77.00;;;;;;5028066;28;20267;-71
2021/06/14 06:40:00;;;;;;;0.60;0.60;;;15.60;76.80;;;;;;5045532;28;20708;-70
2021/06/14 06:42:26;;;;;;;1.02;0.70;;;15.60;76.20;;;;;;5045912;28;20195;-70
2021/06/14 06:44:53;;;;;;;0.70;0.70;;;15.70;76.50;;;;;;5045734;28;20270;-71
2021/06/14 06:47:18;;;;;;;3.00;0.63;;;15.90;76.60;;;;;;5045676;28;20665;-70
2021/06/14 06:49:45;;;;;;;7.28;0.85;;;16.00;75.60;;;;;;5045484;28;20213;-70
2021/06/14 06:52:11;;;;;;;2.35;0.70;;;16.20;75.80;;;;;;5045750;28;20207;-71
2021/06/14 06:54:37;;;;;;;1.15;0.70;;;16.30;74.50;;;;;;5045398;28;20186;-71
2021/06/14 06:57:03;;;;;;;1.95;0.70;;;16.40;73.90;;;;;;5042770;28;20184;-71
2021/06/14 06:59:28;;;;;;;0.50;0.50;;;16.50;73.80;;;;;;5045302;28;20217;-71
2021/06/14 07:01:54;;;;;;;2.28;0.77;;;16.60;72.00;;;;;;5045558;28;20660;-72
2021/06/14 07:04:20;;;;;;;0.65;0.65;;;16.70;71.20;;;;;;5045448;28;20591;-72
2021/06/14 07:06:46;;;;;;;0.82;0.68;;;16.80;72.60;;;;;;5045536;28;20178;-71
2021/06/14 07:09:12;;;;;;;0.80;0.80;;;16.90;73.20;;;;;;5045352;28;20195;-70
2021/06/14 07:11:39;;;;;;;1.27;0.60;;;17.10;73.10;;;;;;5045484;28;20580;-70
2021/06/14 07:14:05;;;;;;;1.83;0.73;;;17.20;72.60;;;;;;5045443;28;20219;-73
2021/06/14 07:16:31;;;;;;;0.88;0.73;;;17.20;71.70;;;;;;5045071;28;20223;-71
2021/06/14 07:18:57;;;;;;;0.57;0.57;;;17.20;71.20;;;;;;5045114;28;20211;-72
2021/06/14 07:21:24;;;;;;;0.90;0.70;;;17.20;70.20;;;;;;5045487;28;20187;-72
2021/06/14 07:23:50;;;;;;;1.40;0.77;;;17.20;70.30;;;;;;5045000;28;20195;-71
2021/06/14 07:26:16;;;;;;;0.95;0.50;;;17.20;70.10;;;;;;5045377;28;20187;-72
2021/06/14 07:28:42;;;;;;;0.50;0.50;;;17.20;70.10;;;;;;5045001;28;20191;-72
2021/06/14 07:31:10;;;;;;;3.15;0.55;;;17.30;70.90;;;;;;5046407;28;20230;-71
2021/06/14 07:33:37;;;;;;;0.55;0.55;;;17.30;69.40;;;;;;5047171;28;20326;-72
2021/06/14 07:36:08;;;;;;;0.60;0.57;;;17.30;69.60;;;;;;5049361;28;20664;-70
2021/06/14 07:38:34;;;;;;;0.50;0.50;;;17.30;68.00;;;;;;5047532;28;20214;-72
2021/06/14 07:41:00;;;;;;;0.55;0.55;;;17.40;68.50;;;;;;5049094;28;20653;-72
2021/06/14 07:43:26;;;;;;;0.50;0.50;;;17.40;66.60;;;;;;5049838;28;20190;-71
2021/06/14 07:45:53;;;;;;;0.93;0.60;;;17.50;67.10;;;;;;5048821;28;20192;-72
2021/06/14 07:48:18;;;;;;;0.47;0.47;;;17.50;67.30;;;;;;5048598;28;20221;-72
2021/06/14 07:50:46;;;;;;;0.40;0.40;;;17.60;67.20;;;;;;5048643;28;20467;-72
2021/06/14 07:53:12;;;;;;;0.55;0.55;;;17.70;66.50;;;;;;5047149;28;20328;-72
2021/06/14 07:55:38;;;;;;;0.60;0.60;;;17.80;66.90;;;;;;5047054;28;20199;-71
2021/06/14 07:58:05;;;;;;;0.60;0.60;;;17.90;65.00;;;;;;5048680;28;20243;-71
2021/06/14 08:00:31;;;;;;;0.65;0.65;;;17.90;65.90;;;;;;5048777;28;20192;-72
2021/06/14 08:02:57;;;;;;;0.75;0.55;;;17.90;66.60;;;;;;5048322;28;20215;-71
2021/06/14 08:05:23;;;;;;;0.60;0.60;;;17.90;65.20;;;;;;5045619;28;20249;-71
2021/06/14 08:07:49;;;;;;;0.65;0.65;;;17.90;64.70;;;;;;5048365;28;20187;-71
2021/06/14 08:10:17;;;;;;;1.77;0.55;;;17.80;65.10;;;;;;5048142;28;20195;-71
2021/06/14 08:12:46;;;;;;;1.15;0.80;;;17.70;65.80;;;;;;5048259;28;20206;-72
2021/06/14 08:15:17;;;;;;;0.63;0.63;;;17.60;66.10;;;;;;5048191;28;20255;-72
2021/06/14 08:17:43;;;;;;;2.80;0.60;;;17.60;66.80;;;;;;5048134;28;20294;-72
2021/06/14 08:25:36;;;;;;;0.70;0.70;;;17.40;67.80;;;;;;5005935;28;20855;-72
2021/06/14 08:28:03;;;;;;;0.85;0.55;;;17.30;68.40;;;;;;5000707;28;20288;-72
2021/06/14 08:30:29;;;;;;;0.90;0.90;;;17.20;68.80;;;;;;5000591;28;20200;-73
2021/06/14 08:32:56;;;;;;;6.53;0.80;;;17.20;68.70;;;;;;5005493;28;20698;-71
2021/06/14 08:35:24;;;;;;;2.33;0.80;;;17.20;69.40;;;;;;5008315;28;20239;-71
2021/06/14 08:37:51;;;;;;;4.13;1.10;;;17.10;69.80;;;;;;4999141;28;20308;-71
2021/06/14 08:40:22;;;;;;;0.88;0.88;;;17.00;70.50;;;;;;5005291;28;20400;-70
2021/06/14 08:42:50;;;;;;;0.98;0.90;;;17.00;70.90;;;;;;5004372;28;20189;-72
2021/06/14 08:45:18;;;;;;;2.67;1.00;;;16.90;71.40;;;;;;5004999;28;20193;-73
2021/06/14 08:47:47;;;;;;;1.13;1.00;;;16.90;72.00;;;;;;5005013;28;20654;-72
2021/06/14 08:50:16;;;;;;;0.60;0.60;;;16.90;72.00;;;;;;5005341;28;20181;-71
2021/06/14 08:52:43;;;;;;;0.90;0.90;;;16.90;72.10;;;;;;4987239;28;20192;-73
2021/06/14 08:55:11;;;;;;;0.95;0.80;;;17.00;72.10;;;;;;4995504;28;20185;-71
2021/06/14 08:57:37;;;;;;;0.68;0.60;;;17.10;72.10;;;;;;4994045;28;20710;-72
2021/06/14 09:00:05;;;;;;;0.70;0.70;;;17.10;71.90;;;;;;5023795;28;20199;-71
2021/06/14 09:02:31;;;;;;;1.17;1.00;;;17.20;71.70;;;;;;5046792;28;20254;-72
2021/06/14 09:04:57;;;;;;;2.08;1.08;;;17.30;71.60;;;;;;5047356;28;20267;-71
2021/06/14 09:07:23;;;;;;;0.80;0.80;;;17.40;71.40;;;;;;5045945;28;20263;-71
2021/06/14 09:09:49;;;;;;;3.78;0.95;;;17.60;71.10;;;;;;5044762;28;20199;-71
2021/06/14 09:12:15;;;;;;;0.88;0.88;;;17.70;70.60;;;;;;5055785;28;20195;-71
2021/06/14 09:14:42;;;;;;;1.00;1.00;;;17.90;70.80;;;;;;5046710;28;20184;-71
2021/06/14 09:17:11;;;;;;;0.80;0.80;;;18.00;71.10;;;;;;5044230;28;20182;-70
2021/06/14 09:19:41;;;;;;;0.63;0.63;;;18.30;69.50;;;;;;5047455;28;20222;-71
2021/06/14 09:22:12;;;;;;;0.70;0.70;;;18.40;69.50;;;;;;5045004;28;20187;-71
2021/06/14 09:24:37;;;;;;;2.33;0.90;;;18.50;69.30;;;;;;5044465;28;20183;-72
2021/06/14 09:27:03;;;;;;;1.85;0.60;;;18.70;69.70;;;;;;5046579;28;20245;-72
2021/06/14 09:29:30;;;;;;;1.45;0.60;;;18.80;68.90;;;;;;5048544;28;20187;-75
2021/06/14 09:31:58;;;;;;;1.65;0.63;;;18.50;72.20;;;;;;5043191;28;20207;-71
2021/06/14 09:34:36;;;;;;;1.98;0.60;;;18.20;71.90;;;;;;5040324;28;20571;-72
2021/06/14 09:37:04;;;;;;;0.95;0.93;;;17.90;73.10;;;;;;5039025;28;20191;-72
2021/06/14 09:39:38;;;;;;;1.33;0.70;;;17.60;74.80;;;;;;5038869;28;20222;-72
2021/06/14 09:42:15;;;;;;;3.88;0.70;;;17.20;75.60;;;;;;5041264;28;20698;-74
2021/06/14 09:44:41;;;;;;;1.02;0.93;;;16.90;76.90;;;;;;5044326;28;20262;-73
2021/06/14 09:47:09;;;;;;;1.33;1.00;;;16.60;78.40;;;;;;5037648;28;20633;-73
2021/06/14 09:49:36;;;;;;;1.20;1.08;;;16.30;79.70;;;;;;5043974;28;20619;-73
2021/06/14 09:52:04;;;;;;;0.88;0.85;;;16.10;79.60;;;;;;5038542;28;20187;-73
2021/06/14 09:54:32;;;;;;;0.95;0.95;;;15.80;80.60;;;;;;5043854;28;20296;-73
2021/06/14 09:56:59;;;;;;;2.20;1.05;;;15.80;82.10;;;;;;5040677;28;20191;-73
2021/06/14 09:59:27;;;;;;;1.02;0.88;;;15.70;82.90;;;;;;5040990;28;20242;-72
2021/06/14 10:02:14;;;;;;;1.10;0.80;;;15.60;82.50;;;;;;5041162;28;20549;-71
2021/06/14 10:04:39;;;;;;;0.95;0.70;;;15.60;82.50;;;;;;5025509;28;20191;-72
2021/06/14 10:07:11;;;;;;;0.82;0.82;;;15.50;82.70;;;;;;5037865;28;20215;-74
2021/06/14 10:09:45;;;;;;;1.65;0.90;;;15.50;82.10;;;;;;5023157;28;20211;-72
2021/06/14 10:12:25;;;;;;;0.75;0.75;;;15.50;82.40;;;;;;5042640;28;20765;-71
2021/06/14 10:14:51;;;;;;;0.95;0.82;;;15.50;82.90;;;;;;5041378;28;20652;-74
2021/06/14 10:17:34;;;;;;;2.80;0.73;;;15.50;83.20;;;;;;5027838;28;20183;-73
2021/06/14 10:20:10;;;;;;;1.00;1.00;;;15.40;84.30;;;;;;5038683;28;20215;-73
2021/06/14 10:22:37;;;;;;;1.23;1.00;;;15.20;86.70;;;;;;5039134;28;20661;-73
2021/06/14 10:25:05;;;;;;;0.70;0.70;;;14.90;88.10;;;;;;5037868;28;20237;-73
2021/06/14 10:27:32;;;;;;;0.80;0.80;;;14.60;85.60;;;;;;5041275;28;20568;-74
2021/06/14 10:29:59;;;;;;;0.70;0.70;;;14.40;86.20;;;;;;5039551;28;20717;-71
2021/06/14 10:32:25;;;;;;;0.95;0.82;;;14.30;87.90;;;;;;5038222;28;20695;-71
2021/06/14 10:34:54;;;;;;;1.92;0.93;;;14.30;87.30;;;;;;5040458;28;20183;-71
2021/06/14 10:37:21;;;;;;;4.57;1.13;;;14.40;88.00;;;;;;5038908;28;20179;-74
2021/06/14 10:39:52;;;;;;;0.95;0.95;;;14.50;88.10;;;;;;5039123;28;20215;-75
2021/06/14 10:42:18;;;;;;;0.93;0.88;;;14.50;88.70;;;;;;5037150;28;20221;-72
2021/06/14 10:44:44;;;;;;;4.18;1.00;;;14.60;87.20;;;;;;5039178;28;20194;-73
2021/06/14 10:47:11;;;;;;;1.20;1.02;;;14.70;88.10;;;;;;5042936;28;20191;-71
2021/06/14 10:49:37;;;;;;;0.88;0.88;;;14.80;88.30;;;;;;5040827;28;20185;-72
2021/06/14 10:52:05;;;;;;;0.85;0.85;;;14.90;88.20;;;;;;5041843;28;20266;-75
2021/06/14 10:55:06;;;;;;;2.42;1.20;;;14.90;87.10;;;;;;5040637;28;20176;-75
2021/06/14 10:57:31;;;;;;;0.90;0.85;;;15.00;87.70;;;;;;5035807;28;20184;-74
2021/06/14 10:59:57;;;;;;;1.08;1.08;;;15.10;88.30;;;;;;5040716;28;20534;-74
2021/06/14 11:02:24;;;;;;;5.40;1.13;;;15.20;88.60;;;;;;5042209;28;20490;-74
2021/06/14 11:04:50;;;;;;;0.80;0.80;;;15.20;87.30;;;;;;5039842;28;20377;-73
2021/06/14 11:07:16;;;;;;;4.10;1.00;;;15.20;87.70;;;;;;5045490;28;20743;-75
2021/06/14 11:09:45;;;;;;;1.33;1.02;;;15.30;86.20;;;;;;5042895;28;20416;-73
2021/06/14 11:12:31;;;;;;;1.27;1.10;;;15.40;85.60;;;;;;5044244;28;20187;-74
2021/06/14 11:15:08;;;;;;;1.02;1.02;;;15.60;86.50;;;;;;5045480;28;20212;-75
2021/06/14 11:17:35;;;;;;;2.72;1.17;;;15.80;84.70;;;;;;5041168;28;20203;-74
2021/06/14 11:20:01;;;;;;;1.20;1.20;;;15.80;84.80;;;;;;5043385;28;20305;-73
2021/06/14 11:22:37;;;;;;;1.83;1.10;;;15.90;84.60;;;;;;5047453;28;20195;-73
2021/06/14 11:25:24;;;;;;;1.17;1.13;;;16.00;84.10;;;;;;5047328;28;20668;-72
2021/06/14 11:27:51;;;;;;;1.10;1.10;;;16.20;84.60;;;;;;5044986;28;20183;-74
2021/06/14 11:30:21;;;;;;;1.65;1.27;;;16.40;84.50;;;;;;5045887;28;20176;-73
2021/06/14 11:32:47;;;;;;;1.17;1.17;;;16.60;83.90;;;;;;5025558;28;20660;-73
2021/06/14 11:35:13;;;;;;;1.17;1.17;;;16.80;83.70;;;;;;5042119;28;20294;-73
2021/06/14 11:37:45;;;;;;;0.95;0.95;;;16.90;81.70;;;;;;5040120;28;20190;-73
2021/06/14 11:40:13;;;;;;;1.48;1.45;;;17.00;80.80;;;;;;5042389;28;20184;-73
2021/06/14 11:42:50;;;;;;;0.80;0.80;;;17.10;79.30;;;;;;5041067;28;20176;-73
2021/06/14 11:45:30;;;;;;;1.60;0.90;;;17.20;79.30;;;;;;5042525;28;20195;-73
2021/06/14 11:47:57;;;;;;;3.25;0.98;;;17.20;77.50;;;;;;5041047;28;20183;-73
2021/06/14 11:50:26;;;;;;;0.82;0.82;;;17.30;77.50;;;;;;5041043;28;20205;-73
2021/06/14 11:53:00;;;;;;;1.25;1.23;;;17.30;78.20;;;;;;5039765;28;20192;-73
2021/06/14 11:55:28;;;;;;;0.93;0.85;;;17.40;78.00;;;;;;5043757;28;20202;-73
2021/06/14 11:57:57;;;;;;;1.48;0.82;;;17.60;77.40;;;;;;5041311;28;20200;-71
2021/06/14 12:00:33;;;;;;;1.02;1.02;;;17.80;76.70;;;;;;5053053;28;20264;-75
2021/06/14 12:02:59;;;;;;;0.82;0.82;;;18.10;76.30;;;;;;5048516;28;20186;-75
2021/06/14 12:05:33;;;;;;;0.77;0.77;;;18.30;76.50;;;;;;5048452;28;20496;-73
2021/06/14 12:08:04;;;;;;;1.40;1.15;;;18.80;75.40;;;;;;5049119;28;20589;-72
2021/06/14 12:10:30;;;;;;;0.70;0.70;;;19.10;71.50;;;;;;5048961;28;20627;-73
2021/06/14 12:13:11;;;;;;;0.75;0.75;;;19.30;70.80;;;;;;5048401;28;20322;-73
2021/06/14 12:15:41;;;;;;;0.77;0.77;;;19.30;71.70;;;;;;5049477;28;20645;-73
2021/06/14 12:18:08;;;;;;;2.20;1.20;;;19.30;71.30;;;;;;5047998;28;20239;-73
2021/06/14 12:20:37;;;;;;;0.90;0.90;;;19.20;70.60;;;;;;5031515;28;20187;-73
2021/06/14 12:23:08;;;;;;;1.05;0.77;;;19.10;71.00;;;;;;5049894;28;20182;-72
2021/06/14 12:25:36;;;;;;;1.13;1.13;;;19.10;72.10;;;;;;5028886;28;20590;-73
2021/06/14 12:28:05;;;;;;;1.10;1.10;;;19.30;70.90;;;;;;5049148;28;20191;-73
2021/06/14 12:30:31;;;;;;;1.00;1.00;;;19.30;70.90;;;;;;5041268;28;20180;-73
2021/06/14 12:32:58;;;;;;;1.17;1.17;;;19.70;71.90;;;;;;5046038;28;20313;-73
2021/06/14 12:35:25;;;;;;;2.70;0.80;;;20.40;70.90;;;;;;5031103;28;20183;-73
2021/06/14 12:37:51;;;;;;;1.17;1.17;;;21.20;69.70;;;;;;5029258;28;20242;-73
2021/06/14 12:40:23;;;;;;;0.80;0.80;;;22.20;68.00;;;;;;5048654;28;20184;-73
2021/06/14 12:43:00;;;;;;;1.00;1.00;;;23.00;65.70;;;;;;5048959;28;20259;-73
2021/06/14 12:45:26;;;;;;;0.63;0.60;;;23.30;64.80;;;;;;5020128;28;20191;-73
2021/06/14 12:47:55;;;;;;;0.82;0.80;;;23.90;63.30;;;;;;5048793;28;20687;-73
2021/06/14 12:50:30;;;;;;;0.95;0.55;;;24.60;63.20;;;;;;5047243;28;20210;-73
2021/06/14 12:52:57;;;;;;;0.82;0.68;;;25.30;60.90;;;;;;5048610;28;20203;-73
2021/06/14 12:55:37;;;;;;;2.65;0.85;;;25.60;58.70;;;;;;5048915;28;20176;-73
2021/06/14 12:58:15;;;;;;;0.70;0.70;;;25.60;58.20;;;;;;5047024;28;20210;-73
2021/06/14 13:00:47;;;;;;;1.58;0.60;;;25.80;58.80;;;;;;5048186;28;20634;-73